createdAt,value
2019-04-28T00:00:28.522Z,5.18
2019-04-28T00:01:28.498Z,5.27
2019-04-28T00:02:28.488Z,5.31
2019-04-28T00:03:28.469Z,5.28
2019-04-28T00:04:28.449Z,5.31
2019-04-28T00:05:28.435Z,5.36
2019-04-28T00:06:28.417Z,5.27
2019-04-28T00:07:28.409Z,5.30
2019-04-28T00:08:28.390Z,5.27
2019-04-28T00:09:28.369Z,5.30
2019-04-28T00:10:28.361Z,5.27
2019-04-28T00:11:28.339Z,5.21
2019-04-28T00:12:28.326Z,5.24
2019-04-28T00:13:28.310Z,5.28
2019-04-28T00:14:28.293Z,5.25
2019-04-28T00:15:28.276Z,5.33
2019-04-28T00:16:28.262Z,5.35
2019-04-28T00:17:28.240Z,5.27
2019-04-28T00:18:28.224Z,5.25
2019-04-28T00:19:28.214Z,5.27
2019-04-28T00:20:28.193Z,5.24
2019-04-28T00:21:28.179Z,4.96
2019-04-28T00:22:28.163Z,4.77
2019-04-28T00:23:28.145Z,4.69
2019-04-28T00:24:28.132Z,4.45
2019-04-28T00:25:28.129Z,4.40
2019-04-28T00:26:28.091Z,4.29
2019-04-28T00:27:28.084Z,4.27
2019-04-28T00:28:28.065Z,4.15
2019-04-28T00:29:38.541Z,4.24
2019-04-28T00:30:28.033Z,4.15
2019-04-28T00:31:28.021Z,4.05
2019-04-28T00:32:28.001Z,4.06
2019-04-28T00:33:27.981Z,4.09
2019-04-28T00:34:27.967Z,4.09
2019-04-28T00:35:27.951Z,3.96
2019-04-28T00:36:27.932Z,4.06
2019-04-28T00:37:27.914Z,3.91
2019-04-28T00:38:27.901Z,4.00
2019-04-28T00:39:27.888Z,3.94
2019-04-28T00:40:27.866Z,3.93
2019-04-28T00:41:27.852Z,3.94
2019-04-28T00:42:27.833Z,3.97
2019-04-28T00:43:27.816Z,3.98
2019-04-28T00:44:27.796Z,3.96
2019-04-28T00:45:27.785Z,4.02
2019-04-28T00:46:27.767Z,4.06
2019-04-28T00:47:27.752Z,4.08
2019-04-28T00:48:27.729Z,4.04
2019-04-28T00:49:27.715Z,4.00
2019-04-28T00:50:27.699Z,4.08
2019-04-28T00:51:27.677Z,3.93
2019-04-28T00:52:27.672Z,3.87
2019-04-28T00:53:27.652Z,3.93
2019-04-28T00:54:27.645Z,3.86
2019-04-28T00:55:27.612Z,3.84
2019-04-28T00:56:27.601Z,3.83
2019-04-28T00:57:27.579Z,3.83
2019-04-28T00:58:27.569Z,3.69
2019-04-28T00:59:27.545Z,3.72
2019-04-28T01:00:27.530Z,3.73
2019-04-28T01:01:27.514Z,3.73
2019-04-28T01:02:27.500Z,3.75
2019-04-28T01:03:27.488Z,3.79
2019-04-28T01:04:27.458Z,3.83
2019-04-28T01:05:27.448Z,3.83
2019-04-28T01:06:27.426Z,3.86
2019-04-28T01:07:27.412Z,3.90
2019-04-28T01:08:27.393Z,3.96
2019-04-28T01:09:27.377Z,3.90
2019-04-28T01:10:27.355Z,3.97
2019-04-28T01:11:27.347Z,4.00
2019-04-28T01:12:27.326Z,3.91
2019-04-28T01:13:27.319Z,3.96
2019-04-28T01:14:27.294Z,4.00
2019-04-28T01:15:27.278Z,3.96
2019-04-28T01:16:27.251Z,4.00
2019-04-28T01:17:27.238Z,3.86
2019-04-28T01:18:27.231Z,4.02
2019-04-28T01:19:27.210Z,4.12
2019-04-28T01:20:27.190Z,3.96
2019-04-28T01:21:27.172Z,4.06
2019-04-28T01:22:27.158Z,4.05
2019-04-28T01:23:27.141Z,4.04
2019-04-28T01:24:27.121Z,4.06
2019-04-28T01:25:27.117Z,4.11
2019-04-28T01:26:27.089Z,4.08
2019-04-28T01:27:27.073Z,4.11
2019-04-28T01:28:27.059Z,4.06
2019-04-28T01:29:27.037Z,4.16
2019-04-28T01:30:27.024Z,4.23
2019-04-28T01:31:27.011Z,4.29
2019-04-28T01:32:26.996Z,4.32
2019-04-28T01:33:26.968Z,4.32
2019-04-28T01:34:26.950Z,4.30
2019-04-28T01:35:26.938Z,4.30
2019-04-28T01:36:26.920Z,4.32
2019-04-28T01:37:26.909Z,4.23
2019-04-28T01:38:26.884Z,4.23
2019-04-28T01:39:26.870Z,4.14
2019-04-28T01:40:26.851Z,4.23
2019-04-28T01:41:26.835Z,4.20
2019-04-28T01:42:26.819Z,4.30
2019-04-28T01:43:26.801Z,4.20
2019-04-28T01:44:26.799Z,4.34
2019-04-28T01:45:26.769Z,4.26
2019-04-28T01:46:26.753Z,4.34
2019-04-28T01:47:26.729Z,4.24
2019-04-28T01:48:26.724Z,4.36
2019-04-28T01:49:26.698Z,4.41
2019-04-28T01:50:26.686Z,4.29
2019-04-28T01:51:26.664Z,4.41
2019-04-28T01:52:26.655Z,4.36
2019-04-28T01:53:26.634Z,4.48
2019-04-28T01:54:26.620Z,4.42
2019-04-28T01:55:26.604Z,4.45
2019-04-28T01:56:26.581Z,4.44
2019-04-28T01:57:26.565Z,4.54
2019-04-28T01:58:26.547Z,4.59
2019-04-28T01:59:26.529Z,4.65
2019-04-28T02:00:26.515Z,4.67
2019-04-28T02:01:26.499Z,4.73
2019-04-28T02:02:26.487Z,4.59
2019-04-28T02:03:26.466Z,4.55
2019-04-28T02:04:26.450Z,4.63
2019-04-28T02:05:26.438Z,4.58
2019-04-28T02:06:26.418Z,4.45
2019-04-28T02:07:26.400Z,4.55
2019-04-28T02:08:26.388Z,4.58
2019-04-28T02:09:26.370Z,4.50
2019-04-28T02:10:26.358Z,4.40
2019-04-28T02:11:26.334Z,4.44
2019-04-28T02:12:26.317Z,4.34
2019-04-28T02:13:26.302Z,4.42
2019-04-28T02:14:26.281Z,4.42
2019-04-28T02:15:26.266Z,4.37
2019-04-28T02:16:26.251Z,4.42
2019-04-28T02:17:26.241Z,4.45
2019-04-28T02:18:26.215Z,4.45
2019-04-28T02:19:26.201Z,4.37
2019-04-28T02:20:26.186Z,4.42
2019-04-28T02:21:26.173Z,4.37
2019-04-28T02:22:26.150Z,4.41
2019-04-28T02:23:26.140Z,4.40
2019-04-28T02:24:26.120Z,4.34
2019-04-28T02:25:26.102Z,4.47
2019-04-28T02:26:26.088Z,4.27
2019-04-28T02:27:26.066Z,4.34
2019-04-28T02:28:26.055Z,4.32
2019-04-28T02:29:26.035Z,4.37
2019-04-28T02:30:40.989Z,4.36
2019-04-28T02:31:26.004Z,4.34
2019-04-28T02:32:25.987Z,4.27
2019-04-28T02:33:25.968Z,4.36
2019-04-28T02:34:25.972Z,4.42
2019-04-28T02:35:25.933Z,4.34
2019-04-28T02:36:25.926Z,4.36
2019-04-28T02:37:25.905Z,4.33
2019-04-28T02:38:25.895Z,4.29
2019-04-28T02:39:25.880Z,4.40
2019-04-28T02:40:25.848Z,4.32
2019-04-28T02:41:25.837Z,4.37
2019-04-28T02:42:25.811Z,4.40
2019-04-28T02:43:25.807Z,4.40
2019-04-28T02:44:25.788Z,4.50
2019-04-28T02:45:25.783Z,4.47
2019-04-28T02:46:25.754Z,4.42
2019-04-28T02:47:25.745Z,4.41
2019-04-28T02:48:25.714Z,4.45
2019-04-28T02:49:25.698Z,4.47
2019-04-28T02:50:25.686Z,4.41
2019-04-28T02:51:25.671Z,4.41
2019-04-28T02:52:25.653Z,4.36
2019-04-28T02:53:25.640Z,4.40
2019-04-28T02:54:25.619Z,4.32
2019-04-28T02:55:25.602Z,4.40
2019-04-28T02:56:25.585Z,4.42
2019-04-28T02:57:25.566Z,4.36
2019-04-28T02:58:25.570Z,4.34
2019-04-28T02:59:25.542Z,4.40
2019-04-28T03:00:25.521Z,4.36
2019-04-28T03:01:26.637Z,4.36
2019-04-28T03:02:25.489Z,4.29
2019-04-28T03:03:25.471Z,4.30
2019-04-28T03:04:25.450Z,4.22
2019-04-28T03:05:25.437Z,4.33
2019-04-28T03:06:25.414Z,4.23
2019-04-28T03:07:25.400Z,4.34
2019-04-28T03:08:25.380Z,4.14
2019-04-28T03:09:25.375Z,4.27
2019-04-28T03:10:25.351Z,4.15
2019-04-28T03:11:25.345Z,4.30
2019-04-28T03:12:25.313Z,4.24
2019-04-28T03:13:25.302Z,4.27
2019-04-28T03:14:25.285Z,4.29
2019-04-28T03:15:25.263Z,4.37
2019-04-28T03:16:25.254Z,4.37
2019-04-28T03:17:25.234Z,4.48
2019-04-28T03:18:25.222Z,4.42
2019-04-28T03:19:25.200Z,4.50
2019-04-28T03:20:25.186Z,4.47
2019-04-28T03:21:25.175Z,4.48
2019-04-28T03:22:25.160Z,4.42
2019-04-28T03:23:25.134Z,4.34
2019-04-28T03:24:25.112Z,4.36
2019-04-28T03:25:25.093Z,4.36
2019-04-28T03:26:25.083Z,4.40
2019-04-28T03:27:25.065Z,4.34
2019-04-28T03:28:25.071Z,4.30
2019-04-28T03:29:25.038Z,4.24
2019-04-28T03:30:25.022Z,4.32
2019-04-28T03:31:50.869Z,4.34
2019-04-28T03:32:39.701Z,4.29
2019-04-28T03:33:26.210Z,4.29
2019-04-28T03:34:24.966Z,4.40
2019-04-28T03:35:24.934Z,4.33
2019-04-28T03:36:24.914Z,4.40
2019-04-28T03:37:24.902Z,4.42
2019-04-28T03:38:24.879Z,4.45
2019-04-28T03:39:24.872Z,4.41
2019-04-28T03:40:24.846Z,4.48
2019-04-28T03:41:24.836Z,4.45
2019-04-28T03:42:24.827Z,4.54
2019-04-28T03:43:24.798Z,4.51
2019-04-28T03:44:24.786Z,4.45
2019-04-28T03:45:24.760Z,4.59
2019-04-28T03:46:24.754Z,4.65
2019-04-28T03:47:24.737Z,4.65
2019-04-28T03:48:24.713Z,4.60
2019-04-28T03:49:24.700Z,4.52
2019-04-28T03:50:24.686Z,4.54
2019-04-28T03:51:24.661Z,4.69
2019-04-28T03:52:24.659Z,4.63
2019-04-28T03:53:24.640Z,4.69
2019-04-28T03:54:24.609Z,4.59
2019-04-28T03:55:24.600Z,4.69
2019-04-28T03:56:24.580Z,4.63
2019-04-28T03:57:24.572Z,4.72
2019-04-28T03:58:24.561Z,4.69
2019-04-28T03:59:24.528Z,4.55
2019-04-28T04:00:24.520Z,4.67
2019-04-28T04:01:24.509Z,4.51
2019-04-28T04:02:24.489Z,4.47
2019-04-28T04:03:24.469Z,4.44
2019-04-28T04:04:24.454Z,4.45
2019-04-28T04:05:24.433Z,4.41
2019-04-28T04:06:24.423Z,4.44
2019-04-28T04:07:24.397Z,4.47
2019-04-28T04:08:24.381Z,4.36
2019-04-28T04:09:24.368Z,4.34
2019-04-28T04:10:24.353Z,4.32
2019-04-28T04:11:24.352Z,4.32
2019-04-28T04:12:24.316Z,4.36
2019-04-28T04:13:24.302Z,4.15
2019-04-28T04:14:24.291Z,4.20
2019-04-28T04:15:24.304Z,4.04
2019-04-28T04:16:24.252Z,4.09
2019-04-28T04:17:24.238Z,4.05
2019-04-28T04:18:24.219Z,4.06
2019-04-28T04:19:24.243Z,3.98
2019-04-28T04:20:24.183Z,3.97
2019-04-28T04:21:24.164Z,3.97
2019-04-28T04:22:24.149Z,4.06
2019-04-28T04:23:24.139Z,3.98
2019-04-28T04:24:24.119Z,3.96
2019-04-28T04:25:24.105Z,4.00
2019-04-28T04:26:24.095Z,4.06
2019-04-28T04:27:24.067Z,3.91
2019-04-28T04:28:24.051Z,4.06
2019-04-28T04:29:24.038Z,4.04
2019-04-28T04:30:24.010Z,4.08
2019-04-28T04:31:24.002Z,4.11
2019-04-28T04:32:26.984Z,4.08
2019-04-28T04:33:23.973Z,4.05
2019-04-28T04:34:23.952Z,4.15
2019-04-28T04:35:23.943Z,4.15
2019-04-28T04:36:23.917Z,4.16
2019-04-28T04:37:23.897Z,4.20
2019-04-28T04:38:23.880Z,4.27
2019-04-28T04:39:23.882Z,4.34
2019-04-28T04:40:23.850Z,4.32
2019-04-28T04:41:23.833Z,4.33
2019-04-28T04:42:23.813Z,4.29
2019-04-28T04:43:23.802Z,4.34
2019-04-28T04:44:23.782Z,4.42
2019-04-28T04:45:23.768Z,4.30
2019-04-28T04:46:23.753Z,4.23
2019-04-28T04:47:23.735Z,4.06
2019-04-28T04:48:23.719Z,3.94
2019-04-28T04:49:23.699Z,3.98
2019-04-28T04:50:23.681Z,3.86
2019-04-28T04:51:23.667Z,3.93
2019-04-28T04:52:23.653Z,3.87
2019-04-28T04:53:23.628Z,3.88
2019-04-28T04:54:23.622Z,3.83
2019-04-28T04:55:23.601Z,3.83
2019-04-28T04:56:23.573Z,3.84
2019-04-28T04:57:23.561Z,3.97
2019-04-28T04:58:23.551Z,4.02
2019-04-28T04:59:23.531Z,3.93
2019-04-28T05:00:23.514Z,3.98
2019-04-28T05:01:23.506Z,4.00
2019-04-28T05:02:29.533Z,4.20
2019-04-28T05:03:23.459Z,4.23
2019-04-28T05:04:23.451Z,4.24
2019-04-28T05:05:23.433Z,4.18
2019-04-28T05:06:23.416Z,4.32
2019-04-28T05:07:23.397Z,4.29
2019-04-28T05:08:23.378Z,4.41
2019-04-28T05:09:23.362Z,4.41
2019-04-28T05:10:23.351Z,4.47
2019-04-28T05:11:23.328Z,4.34
2019-04-28T05:12:23.313Z,4.34
2019-04-28T05:13:23.294Z,4.36
2019-04-28T05:14:23.279Z,4.29
2019-04-28T05:15:23.262Z,4.24
2019-04-28T05:16:23.243Z,4.18
2019-04-28T05:17:23.239Z,4.16
2019-04-28T05:18:23.213Z,4.08
2019-04-28T05:19:23.198Z,4.16
2019-04-28T05:20:23.182Z,4.18
2019-04-28T05:21:23.175Z,4.12
2019-04-28T05:22:23.150Z,4.14
2019-04-28T05:23:23.128Z,4.14
2019-04-28T05:24:23.107Z,4.20
2019-04-28T05:25:24.542Z,4.12
2019-04-28T05:26:23.076Z,4.16
2019-04-28T05:27:25.552Z,4.22
2019-04-28T05:28:23.047Z,4.33
2019-04-28T05:29:26.982Z,4.33
2019-04-28T05:30:23.013Z,4.34
2019-04-28T05:31:24.347Z,4.34
2019-04-28T05:32:22.981Z,4.33
2019-04-28T05:33:23.669Z,4.32
2019-04-28T05:34:24.339Z,4.14
2019-04-28T05:35:25.109Z,4.30
2019-04-28T05:36:22.912Z,4.23
2019-04-28T05:37:22.900Z,4.29
2019-04-28T05:38:22.882Z,4.32
2019-04-28T05:39:22.853Z,4.36
2019-04-28T05:40:22.845Z,4.41
2019-04-28T05:41:22.830Z,4.32
2019-04-28T05:42:22.818Z,4.34
2019-04-28T05:43:22.799Z,4.37
2019-04-28T05:44:22.783Z,4.41
2019-04-28T05:45:22.759Z,4.37
2019-04-28T05:46:22.741Z,4.37
2019-04-28T05:47:22.730Z,4.41
2019-04-28T05:48:22.708Z,4.48
2019-04-28T05:49:22.697Z,4.47
2019-04-28T05:50:22.677Z,4.42
2019-04-28T05:51:22.662Z,4.42
2019-04-28T05:52:22.638Z,4.45
2019-04-28T05:53:22.645Z,4.55
2019-04-28T05:54:22.605Z,4.55
2019-04-28T05:55:22.605Z,4.45
2019-04-28T05:56:22.581Z,4.54
2019-04-28T05:57:22.560Z,4.51
2019-04-28T05:58:22.547Z,4.73
2019-04-28T05:59:22.537Z,4.62
2019-04-28T06:00:22.509Z,4.65
2019-04-28T06:01:22.491Z,4.66
2019-04-28T06:02:22.485Z,4.82
2019-04-28T06:03:22.462Z,4.88
2019-04-28T06:04:22.446Z,4.92
2019-04-28T06:05:22.419Z,4.91
2019-04-28T06:06:22.414Z,5.02
2019-04-28T06:07:22.395Z,5.13
2019-04-28T06:08:22.375Z,5.18
2019-04-28T06:09:22.365Z,5.24
2019-04-28T06:10:22.350Z,5.25
2019-04-28T06:11:22.327Z,5.27
2019-04-28T06:12:22.312Z,5.24
2019-04-28T06:13:22.298Z,5.30
2019-04-28T06:14:22.275Z,5.31
2019-04-28T06:15:22.262Z,5.35
2019-04-28T06:16:22.276Z,5.33
2019-04-28T06:17:22.231Z,5.25
2019-04-28T06:18:22.214Z,5.31
2019-04-28T06:19:22.196Z,5.27
2019-04-28T06:20:22.184Z,5.15
2019-04-28T06:21:22.168Z,5.06
2019-04-28T06:22:22.154Z,5.02
2019-04-28T06:23:22.132Z,5.00
2019-04-28T06:24:22.121Z,4.94
2019-04-28T06:25:22.099Z,4.86
2019-04-28T06:26:22.080Z,4.86
2019-04-28T06:27:22.062Z,4.86
2019-04-28T06:28:22.055Z,4.96
2019-04-28T06:29:22.033Z,4.92
2019-04-28T06:30:22.019Z,4.86
2019-04-28T06:31:21.995Z,4.88
2019-04-28T06:32:21.981Z,4.80
2019-04-28T06:33:21.965Z,4.66
2019-04-28T06:34:21.956Z,4.72
2019-04-28T06:35:21.937Z,4.78
2019-04-28T06:36:21.924Z,4.67
2019-04-28T06:37:21.899Z,4.50
2019-04-28T06:38:21.892Z,4.59
2019-04-28T06:39:21.870Z,4.59
2019-04-28T06:40:21.851Z,4.54
2019-04-28T06:41:21.837Z,4.50
2019-04-28T06:42:21.826Z,4.54
2019-04-28T06:43:21.806Z,4.50
2019-04-28T06:44:21.788Z,4.63
2019-04-28T06:45:21.769Z,4.67
2019-04-28T06:46:21.755Z,4.67
2019-04-28T06:47:21.737Z,4.75
2019-04-28T06:48:21.718Z,4.70
2019-04-28T06:49:21.702Z,4.60
2019-04-28T06:50:21.682Z,4.69
2019-04-28T06:51:21.674Z,4.51
2019-04-28T06:52:21.668Z,4.51
2019-04-28T06:53:21.640Z,4.55
2019-04-28T06:54:21.623Z,4.72
2019-04-28T06:55:21.603Z,4.69
2019-04-28T06:56:21.589Z,4.69
2019-04-28T06:57:21.616Z,4.65
2019-04-28T06:58:21.555Z,4.72
2019-04-28T06:59:21.539Z,4.72
2019-04-28T07:00:21.525Z,4.69
2019-04-28T07:01:21.502Z,4.66
2019-04-28T07:02:21.491Z,4.73
2019-04-28T07:03:23.353Z,4.80
2019-04-28T07:04:21.449Z,4.88
2019-04-28T07:05:21.442Z,4.82
2019-04-28T07:06:21.433Z,4.86
2019-04-28T07:07:21.404Z,4.96
2019-04-28T07:08:21.387Z,4.89
2019-04-28T07:09:21.451Z,4.85
2019-04-28T07:10:21.355Z,4.92
2019-04-28T07:11:21.338Z,4.94
2019-04-28T07:12:21.315Z,4.97
2019-04-28T07:13:21.307Z,4.97
2019-04-28T07:14:21.292Z,4.94
2019-04-28T07:15:21.271Z,4.92
2019-04-28T07:16:21.252Z,4.97
2019-04-28T07:17:21.243Z,5.03
2019-04-28T07:18:21.220Z,4.99
2019-04-28T07:19:21.206Z,4.99
2019-04-28T07:20:21.195Z,4.99
2019-04-28T07:21:21.173Z,5.02
2019-04-28T07:22:21.159Z,4.94
2019-04-28T07:23:21.141Z,4.89
2019-04-28T07:24:21.118Z,4.94
2019-04-28T07:25:21.100Z,4.86
2019-04-28T07:26:21.084Z,4.86
2019-04-28T07:27:21.068Z,4.91
2019-04-28T07:28:21.058Z,4.85
2019-04-28T07:29:21.041Z,4.78
2019-04-28T07:30:21.022Z,4.89
2019-04-28T07:31:21.010Z,4.84
2019-04-28T07:32:20.989Z,4.86
2019-04-28T07:33:20.969Z,4.97
2019-04-28T07:34:20.957Z,5.00
2019-04-28T07:35:20.941Z,5.02
2019-04-28T07:36:20.921Z,5.00
2019-04-28T07:37:20.905Z,5.00
2019-04-28T07:38:20.885Z,4.94
2019-04-28T07:39:20.892Z,4.99
2019-04-28T07:40:20.859Z,5.04
2019-04-28T07:41:20.842Z,5.04
2019-04-28T07:42:20.826Z,5.20
2019-04-28T07:43:20.816Z,5.25
2019-04-28T07:44:20.790Z,5.28
2019-04-28T07:45:20.774Z,5.27
2019-04-28T07:46:20.753Z,5.38
2019-04-28T07:47:20.738Z,5.38
2019-04-28T07:48:20.735Z,5.42
2019-04-28T07:49:20.717Z,5.51
2019-04-28T07:50:20.702Z,5.53
2019-04-28T07:51:20.679Z,5.60
2019-04-28T07:52:20.660Z,5.56
2019-04-28T07:53:20.644Z,5.51
2019-04-28T07:54:20.630Z,5.58
2019-04-28T07:55:20.610Z,5.67
2019-04-28T07:56:20.592Z,5.68
2019-04-28T07:57:20.578Z,5.67
2019-04-28T07:58:20.561Z,5.67
2019-04-28T07:59:20.551Z,5.61
2019-04-28T08:00:20.531Z,5.65
2019-04-28T08:01:20.517Z,5.67
2019-04-28T08:02:20.501Z,5.74
2019-04-28T08:03:20.535Z,5.72
2019-04-28T08:04:20.471Z,5.82
2019-04-28T08:05:20.449Z,5.96
2019-04-28T08:06:20.438Z,5.93
2019-04-28T08:07:20.415Z,6.00
2019-04-28T08:08:20.396Z,6.09
2019-04-28T08:09:20.395Z,6.15
2019-04-28T08:10:20.370Z,6.12
2019-04-28T08:11:20.352Z,6.21
2019-04-28T08:12:20.335Z,6.19
2019-04-28T08:13:20.326Z,6.28
2019-04-28T08:14:20.304Z,6.31
2019-04-28T08:15:20.300Z,6.37
2019-04-28T08:16:20.269Z,6.30
2019-04-28T08:17:20.260Z,6.18
2019-04-28T08:18:20.240Z,6.22
2019-04-28T08:19:20.221Z,6.18
2019-04-28T08:20:20.210Z,6.21
2019-04-28T08:21:20.190Z,6.30
2019-04-28T08:22:20.174Z,6.21
2019-04-28T08:23:20.158Z,6.19
2019-04-28T08:24:20.145Z,6.19
2019-04-28T08:25:20.131Z,6.30
2019-04-28T08:26:20.123Z,6.19
2019-04-28T08:27:20.091Z,6.12
2019-04-28T08:28:20.082Z,6.14
2019-04-28T08:29:20.062Z,6.08
2019-04-28T08:30:20.048Z,6.03
2019-04-28T08:31:20.039Z,6.01
2019-04-28T08:32:20.016Z,5.96
2019-04-28T08:33:20.006Z,5.93
2019-04-28T08:34:19.988Z,6.03
2019-04-28T08:35:19.972Z,5.90
2019-04-28T08:36:19.957Z,5.86
2019-04-28T08:37:19.937Z,5.86
2019-04-28T08:38:19.919Z,5.89
2019-04-28T08:39:19.905Z,5.81
2019-04-28T08:40:19.896Z,5.79
2019-04-28T08:41:19.872Z,5.79
2019-04-28T08:42:19.863Z,5.97
2019-04-28T08:43:19.837Z,5.94
2019-04-28T08:44:19.822Z,5.97
2019-04-28T08:45:19.813Z,6.06
2019-04-28T08:46:19.796Z,6.08
2019-04-28T08:47:19.779Z,6.17
2019-04-28T08:48:19.763Z,6.17
2019-04-28T08:49:19.744Z,6.17
2019-04-28T08:50:19.734Z,6.19
2019-04-28T08:51:19.727Z,6.38
2019-04-28T08:52:19.703Z,6.38
2019-04-28T08:53:19.691Z,6.19
2019-04-28T08:54:19.663Z,6.19
2019-04-28T08:55:19.651Z,6.25
2019-04-28T08:56:19.632Z,6.14
2019-04-28T08:57:19.625Z,6.18
2019-04-28T08:58:19.605Z,6.17
2019-04-28T08:59:19.586Z,6.08
2019-04-28T09:00:19.571Z,6.17
2019-04-28T09:01:19.553Z,6.19
2019-04-28T09:02:19.542Z,6.21
2019-04-28T09:03:19.532Z,6.21
2019-04-28T09:04:19.505Z,6.21
2019-04-28T09:05:19.491Z,6.18
2019-04-28T09:06:19.487Z,6.22
2019-04-28T09:07:19.461Z,6.19
2019-04-28T09:08:19.441Z,6.08
2019-04-28T09:09:19.428Z,6.04
2019-04-28T09:10:19.411Z,6.06
2019-04-28T09:11:19.394Z,6.08
2019-04-28T09:12:19.378Z,6.04
2019-04-28T09:13:19.360Z,5.96
2019-04-28T09:14:19.346Z,5.89
2019-04-28T09:15:19.330Z,5.74
2019-04-28T09:16:19.315Z,5.74
2019-04-28T09:17:19.301Z,5.68
2019-04-28T09:18:19.283Z,5.78
2019-04-28T09:19:19.265Z,5.72
2019-04-28T09:20:19.255Z,5.78
2019-04-28T09:21:19.243Z,5.81
2019-04-28T09:22:19.219Z,5.75
2019-04-28T09:23:19.197Z,5.60
2019-04-28T09:24:19.187Z,5.39
2019-04-28T09:25:19.172Z,5.31
2019-04-28T09:26:19.169Z,5.33
2019-04-28T09:27:19.142Z,5.31
2019-04-28T09:28:19.125Z,5.33
2019-04-28T09:29:19.124Z,5.20
2019-04-28T09:30:19.094Z,5.22
2019-04-28T09:31:19.070Z,5.13
2019-04-28T09:32:19.059Z,5.02
2019-04-28T09:33:19.041Z,4.82
2019-04-28T09:34:28.151Z,4.77
2019-04-28T09:35:19.017Z,4.67
2019-04-28T09:36:18.993Z,4.58
2019-04-28T09:37:18.977Z,4.59
2019-04-28T09:38:18.959Z,4.66
2019-04-28T09:39:18.941Z,4.62
2019-04-28T09:40:18.926Z,4.62
2019-04-28T09:41:18.906Z,4.59
2019-04-28T09:42:18.892Z,4.58
2019-04-28T09:43:18.874Z,4.62
2019-04-28T09:44:18.863Z,4.54
2019-04-28T09:45:18.850Z,4.55
2019-04-28T09:46:18.827Z,4.63
2019-04-28T09:47:18.814Z,4.72
2019-04-28T09:48:18.790Z,4.70
2019-04-28T09:49:18.777Z,4.88
2019-04-28T09:50:18.758Z,4.89
2019-04-28T09:51:18.744Z,4.78
2019-04-28T09:52:18.725Z,4.80
2019-04-28T09:53:18.708Z,4.80
2019-04-28T09:54:18.694Z,4.86
2019-04-28T09:55:18.680Z,4.84
2019-04-28T09:56:18.667Z,4.85
2019-04-28T09:57:18.646Z,4.94
2019-04-28T09:58:18.624Z,5.03
2019-04-28T09:59:18.670Z,5.07
2019-04-28T10:00:18.599Z,5.22
2019-04-28T10:01:18.579Z,5.30
2019-04-28T10:02:18.573Z,5.33
2019-04-28T10:03:18.543Z,5.38
2019-04-28T10:04:18.524Z,5.46
2019-04-28T10:05:18.510Z,5.56
2019-04-28T10:06:18.492Z,5.67
2019-04-28T10:07:18.480Z,5.81
2019-04-28T10:08:18.462Z,5.85
2019-04-28T10:09:18.445Z,5.94
2019-04-28T10:10:18.435Z,6.18
2019-04-28T10:11:30.053Z,6.19
2019-04-28T10:12:26.877Z,6.44
2019-04-28T10:13:18.376Z,6.66
2019-04-28T10:14:18.366Z,6.76
2019-04-28T10:15:18.348Z,7.02
2019-04-28T10:16:18.337Z,6.97
2019-04-28T10:17:18.318Z,7.09
2019-04-28T10:18:18.308Z,7.12
2019-04-28T10:19:18.282Z,7.07
2019-04-28T10:20:18.267Z,7.05
2019-04-28T10:21:18.253Z,7.12
2019-04-28T10:22:18.233Z,7.07
2019-04-28T10:23:18.217Z,7.02
2019-04-28T10:24:18.203Z,6.97
2019-04-28T10:25:20.997Z,6.97
2019-04-28T10:26:18.171Z,6.98
2019-04-28T10:27:18.157Z,6.77
2019-04-28T10:28:18.134Z,6.80
2019-04-28T10:29:18.119Z,6.67
2019-04-28T10:30:18.106Z,6.71
2019-04-28T10:31:18.094Z,6.62
2019-04-28T10:32:18.077Z,6.54
2019-04-28T10:33:18.060Z,6.66
2019-04-28T10:34:18.041Z,6.52
2019-04-28T10:35:18.033Z,6.51
2019-04-28T10:36:18.020Z,6.55
2019-04-28T10:37:17.991Z,6.58
2019-04-28T10:38:17.980Z,6.71
2019-04-28T10:39:17.964Z,6.73
2019-04-28T10:40:17.952Z,6.76
2019-04-28T10:41:17.938Z,6.77
2019-04-28T10:42:17.918Z,6.79
2019-04-28T10:43:17.902Z,6.91
2019-04-28T10:44:17.886Z,7.03
2019-04-28T10:45:17.868Z,6.94
2019-04-28T10:46:17.860Z,7.09
2019-04-28T10:47:17.843Z,6.99
2019-04-28T10:48:17.823Z,6.98
2019-04-28T10:49:17.812Z,6.99
2019-04-28T10:50:17.803Z,6.85
2019-04-28T10:51:17.774Z,6.91
2019-04-28T10:52:17.760Z,6.84
2019-04-28T10:53:17.743Z,6.81
2019-04-28T10:54:17.729Z,6.87
2019-04-28T10:55:17.714Z,6.94
2019-04-28T10:56:17.712Z,6.94
2019-04-28T10:57:17.684Z,6.97
2019-04-28T10:58:17.666Z,6.98
2019-04-28T10:59:17.930Z,7.16
2019-04-28T11:00:17.639Z,7.15
2019-04-28T11:01:17.620Z,6.87
2019-04-28T11:02:17.608Z,6.98
2019-04-28T11:03:17.589Z,6.92
2019-04-28T11:04:17.576Z,6.88
2019-04-28T11:05:17.554Z,6.87
2019-04-28T11:06:17.550Z,6.81
2019-04-28T11:07:17.566Z,6.81
2019-04-28T11:08:17.511Z,6.87
2019-04-28T11:09:29.802Z,6.79
2019-04-28T11:10:17.478Z,6.95
2019-04-28T11:11:17.465Z,7.20
2019-04-28T11:12:17.447Z,7.30
2019-04-28T11:13:17.433Z,7.37
2019-04-28T11:14:17.414Z,7.57
2019-04-28T11:15:17.399Z,7.50
2019-04-28T11:16:17.391Z,7.68
2019-04-28T11:17:17.367Z,7.69
2019-04-28T11:18:17.350Z,7.71
2019-04-28T11:19:17.338Z,7.82
2019-04-28T11:20:17.322Z,7.87
2019-04-28T11:21:17.310Z,8.18
2019-04-28T11:22:17.294Z,8.16
2019-04-28T11:23:17.278Z,8.23
2019-04-28T11:24:17.259Z,8.28
2019-04-28T11:25:17.246Z,8.48
2019-04-28T11:26:17.230Z,8.50
2019-04-28T11:27:17.213Z,8.61
2019-04-28T11:28:17.255Z,8.65
2019-04-28T11:29:17.189Z,8.77
2019-04-28T11:30:17.171Z,8.91
2019-04-28T11:31:17.155Z,8.84
2019-04-28T11:32:17.145Z,8.87
2019-04-28T11:33:17.118Z,8.96
2019-04-28T11:34:17.120Z,9.08
2019-04-28T11:35:21.719Z,9.17
2019-04-28T11:36:17.077Z,9.20
2019-04-28T11:37:17.070Z,9.10
2019-04-28T11:38:17.048Z,9.24
2019-04-28T11:39:17.037Z,9.29
2019-04-28T11:40:17.016Z,9.43
2019-04-28T11:41:17.013Z,9.48
2019-04-28T11:42:16.987Z,9.51
2019-04-28T11:43:16.985Z,9.69
2019-04-28T11:44:16.958Z,9.81
2019-04-28T11:45:16.947Z,10.01
2019-04-28T11:46:16.941Z,10.12
2019-04-28T11:47:16.915Z,10.07
2019-04-28T11:48:16.912Z,10.02
2019-04-28T11:49:16.893Z,9.93
2019-04-28T11:50:16.878Z,9.99
2019-04-28T11:51:16.865Z,9.87
2019-04-28T11:52:16.847Z,9.94
2019-04-28T11:53:16.847Z,9.81
2019-04-28T11:54:16.818Z,9.54
2019-04-28T11:55:16.798Z,9.31
2019-04-28T11:56:16.789Z,9.11
2019-04-28T11:57:16.775Z,8.89
2019-04-28T11:58:16.761Z,8.71
2019-04-28T11:59:16.748Z,8.65
2019-04-28T12:00:16.733Z,8.62
2019-04-28T12:01:16.718Z,8.56
2019-04-28T12:02:16.710Z,8.58
2019-04-28T12:03:16.688Z,8.56
2019-04-28T12:04:16.674Z,8.56
2019-04-28T12:05:16.659Z,8.48
2019-04-28T12:06:16.647Z,8.55
2019-04-28T12:07:16.626Z,8.52
2019-04-28T12:08:16.609Z,8.52
2019-04-28T12:09:16.606Z,8.41
2019-04-28T12:10:16.590Z,8.40
2019-04-28T12:11:16.574Z,8.38
2019-04-28T12:12:16.554Z,8.47
2019-04-28T12:13:16.544Z,8.48
2019-04-28T12:14:16.530Z,8.58
2019-04-28T12:15:16.512Z,8.62
2019-04-28T12:16:16.502Z,8.81
2019-04-28T12:17:16.484Z,8.87
2019-04-28T12:18:16.472Z,8.87
2019-04-28T12:19:16.455Z,8.87
2019-04-28T12:20:16.441Z,8.99
2019-04-28T12:21:16.436Z,8.92
2019-04-28T12:22:16.415Z,8.92
2019-04-28T12:23:16.396Z,8.89
2019-04-28T12:24:16.383Z,8.87
2019-04-28T12:25:16.373Z,8.91
2019-04-28T12:26:16.356Z,8.81
2019-04-28T12:27:16.357Z,9.02
2019-04-28T12:28:16.370Z,8.87
2019-04-28T12:29:16.310Z,8.95
2019-04-28T12:30:16.298Z,8.94
2019-04-28T12:31:16.278Z,9.23
2019-04-28T12:32:16.264Z,9.35
2019-04-28T12:33:16.247Z,9.36
2019-04-28T12:34:16.238Z,9.26
2019-04-28T12:35:18.449Z,9.18
2019-04-28T12:36:16.210Z,9.20
2019-04-28T12:37:16.198Z,9.05
2019-04-28T12:38:16.178Z,8.96
2019-04-28T12:39:16.163Z,8.94
2019-04-28T12:40:16.159Z,8.92
2019-04-28T12:41:16.131Z,8.91
2019-04-28T12:42:16.118Z,8.89
2019-04-28T12:43:16.101Z,8.92
2019-04-28T12:44:16.091Z,8.81
2019-04-28T12:45:16.073Z,8.87
2019-04-28T12:46:16.071Z,8.81
2019-04-28T12:47:16.046Z,8.77
2019-04-28T12:48:16.036Z,8.80
2019-04-28T12:49:16.018Z,8.81
2019-04-28T12:50:16.002Z,8.89
2019-04-28T12:51:15.984Z,8.91
2019-04-28T12:52:15.969Z,9.08
2019-04-28T12:53:15.969Z,9.32
2019-04-28T12:54:15.950Z,9.66
2019-04-28T12:55:15.927Z,9.93
2019-04-28T12:56:15.917Z,9.96
2019-04-28T12:57:15.902Z,9.90
2019-04-28T12:58:15.889Z,9.86
2019-04-28T12:59:15.868Z,9.54
2019-04-28T13:00:15.853Z,9.26
2019-04-28T13:01:15.843Z,8.95
2019-04-28T13:02:15.824Z,8.47
2019-04-28T13:03:15.822Z,8.12
2019-04-28T13:04:15.793Z,7.64
2019-04-28T13:05:15.784Z,7.34
2019-04-28T13:06:15.772Z,7.23
2019-04-28T13:07:15.752Z,7.20
2019-04-28T13:08:15.736Z,7.12
2019-04-28T13:09:15.726Z,7.03
2019-04-28T13:10:15.721Z,6.97
2019-04-28T13:11:15.692Z,6.98
2019-04-28T13:12:15.678Z,6.95
2019-04-28T13:13:15.672Z,6.99
2019-04-28T13:14:15.653Z,6.92
2019-04-28T13:15:15.633Z,6.84
2019-04-28T13:16:15.615Z,6.98
2019-04-28T13:17:15.612Z,6.95
2019-04-28T13:18:15.589Z,6.94